Station: Canberra

  Atmospheric Gas Attenuation - ITU Rec 676-11   --------------- db/100km ---------------
Date Time Temp RH % AH g/m3 Dew Point Wind Direction Speed kph Gust kph Barometer mB Rainfall Since 9am 24GHz 47GHz 76GHz 122GHz 134GHz 241GHz
22 14:10 23.2 48 9.98 11.6 1021.7 0 22.0 25.7 40.8 107.1 104.5 360.9
22 14:00 22.5 49 9.79 11.3 17 33 1021.7 0 21.7 25.6 40.4 106.1 103.1 355.9
22 13:50 22.5 47 9.39 10.6 9 9 1021.9 0 20.8 25.0 38.9 102.2 98.2 338.8
22 13:40 22.3 50 9.87 11.4 19 20 1022 0 21.8 25.8 40.8 107.2 104.3 360.3
22 13:30 22.8 49 9.96 11.5 17 26 1022 0 22.0 25.8 40.9 107.5 104.8 361.9
22 13:20 21.7 51 9.73 11.1 11 13 1022.3 0 21.6 25.7 40.6 106.6 103.4 357.0
22 13:10 21.3 50 9.32 10.5 19 22 1022.4 0 20.7 25.2 39.3 103.1 98.9 341.0
22 13:00 21.5 46 8.67 9.4 15 22 1022.4 0 19.4 24.2 36.8 96.4 90.7 312.6
22 12:50 21.4 47 8.81 9.6 15 19 1022.6 0 19.7 24.4 37.4 97.9 92.6 318.9
22 12:40 22.6 49 9.84 11.4 7 9 1022.7 0 21.8 25.7 40.6 106.6 103.6 357.9
22 12:30 22.3 45 8.89 9.8 19 33 1022.8 0 19.8 24.3 37.2 97.6 92.5 318.8
22 12:20 21.2 50 9.27 10.4 11 15 1023.1 0 20.6 25.2 39.2 102.8 98.4 339.5
22 12:10 21.6 49 9.29 10.4 17 19 1023.1 0 20.7 25.1 39.1 102.5 98.2 338.7
22 12:00 21.2 51 9.45 10.7 15 24 1023.1 0 21.0 25.5 39.9 104.6 100.7 347.3
22 11:50 20.9 52 9.47 10.7 19 22 1023.2 0 21.1 25.6 40.1 105.2 101.3 349.5
22 11:40 21.2 52 9.64 11 17 19 1023.3 0 21.4 25.8 40.6 106.5 103.0 355.6
22 11:30 21.8 52 9.98 11.5 13 19 1023.4 0 22.1 26.1 41.6 109.1 106.5 367.8
22 11:20 20.4 56 9.91 11.3 11 13 1023.6 0 22.0 26.4 42.0 110.4 107.5 371.2
22 11:10 20.1 55 9.56 10.8 15 17 1023.7 0 21.3 26.0 40.8 107.2 103.5 357.1
22 11:00 20.2 58 10.14 11.7 9 11 1023.7 0 22.5 26.9 43.0 113.1 110.8 382.5
22 10:50 19.9 58 9.96 11.4 9 9 1023.9 0 22.1 26.7 42.5 111.6 108.9 375.9
22 10:40 19.4 61 10.18 11.7 7 9 1024 0 22.6 27.2 43.6 114.7 112.5 388.3
22 10:30 19.2 62 10.22 11.7 9 19 1024 0 22.7 27.3 43.9 115.4 113.3 391.1
22 10:20 19.2 60 9.89 11.3 7 9 1024.2 0 22.0 26.8 42.6 111.9 109.0 376.2
22 10:10 18.8 58 9.34 10.4 13 17 1024.2 0 20.9 26.0 40.7 106.7 102.5 353.3
22 10:00 18.9 60 9.72 11 4 13 1024.3 0 21.7 26.6 42.1 110.6 107.2 369.9
22 09:50 18.5 60 9.49 10.6 11 13 1024.3 0 21.2 26.4 41.4 108.7 104.8 361.4
22 09:40 17.9 63 9.62 10.8 7 7 1024.6 0 21.5 26.8 42.3 110.9 107.3 370.2
22 09:30 17.7 68 10.26 11.7 6 13 1024.5 0 22.9 27.8 44.9 118.1 116.1 400.7
22 09:20 18 68 10.44 12 7 9 1024.6 0 23.3 28.1 45.5 119.6 118.0 407.6
22 09:10 16.9 70 10.07 11.4 6 7 1024.7 0 22.5 27.8 44.6 117.2 114.7 395.9
22 09:00 16.6 71 10.03 11.3 7 9 1024.7 0 22.5 27.8 44.6 117.2 114.6 395.5
22 08:50 16.2 72 9.93 11.2 7 7 1024.8 0 22.3 27.8 44.5 116.7 113.9 392.8
22 08:40 15.7 73 9.77 10.9 0 0 1024.8 0 22.0 27.7 44.1 115.7 112.4 387.8
22 08:30 15.3 76 9.92 11.1 4 7 1024.8 0 22.3 28.1 44.9 118.0 115.1 396.9
22 08:20 15.6 72 9.57 10.6 0 0 1024.9 0 21.6 27.4 43.3 113.7 109.9 378.9
22 08:10 15.3 75 9.79 10.9 6 6 1024.9 0 22.0 27.8 44.4 116.5 113.3 390.7
22 08:00 14.3 78 9.58 10.5 2 7 1024.7 0 21.6 27.8 44.1 115.7 111.9 385.6
22 07:50 14.1 82 9.95 11.1 0 0 1024.8 0 22.4 28.5 45.7 120.1 117.3 404.5
22 07:40 13.5 87 10.18 11.4 7 9 1024.6 0 23.0 29.1 47.1 123.7 121.4 418.9
22 07:30 12.9 92 10.37 11.6 9 13 1024.4 0 23.4 29.6 48.2 126.8 125.1 431.6
22 07:20 12.4 98 10.71 12.1 9 11 1024.5 0 24.2 30.4 50.1 131.7 130.9 451.7
22 07:10 11.2 99 10.04 11 6 7 1024.5 0 22.8 29.6 47.9 125.7 123.1 424.4
22 07:00 10.7 99 9.73 10.5 2 7 1024.3 0 22.2 29.2 46.8 122.9 119.4 411.4
22 06:50 10.2 99 9.42 10 6 7 1024.3 0 21.5 28.8 45.7 120.0 115.7 398.4
22 06:40 9.4 99 8.96 9.3 9 11 1024.2 0 20.6 28.3 44.2 115.9 110.3 379.2
22 06:30 8.9 99 8.68 8.8 11 13 1024.2 0 20.0 27.9 43.2 113.4 107.0 367.7
22 06:20 8.4 99 8.4 8.3 9 9 1024.2 0 19.4 27.6 42.3 110.8 103.7 356.0
22 06:10 8.5 99 8.46 8.4 7 7 1024.2 0 19.5 27.7 42.5 111.4 104.4 358.5
22 06:00 8.3 99 8.35 8.2 2 7 1024 0 19.3 27.6 42.1 110.4 103.1 353.9
22 05:50 8.6 99 8.51 8.5 0 0 1024 0 19.6 27.7 42.6 111.8 104.9 360.5
22 05:30 8.5 99 8.46 8.4 6 7 1023.7 0 19.5 27.7 42.5 111.3 104.3 358.4
22 05:20 8.7 99 8.56 8.6 6 7 1023.8 0 19.7 27.8 42.8 112.2 105.5 362.5
22 05:10 8.3 99 8.35 8.2 7 7 1023.9 0 19.3 27.5 42.1 110.4 103.1 353.9
22 05:00 8.6 99 8.51 8.5 2 6 1023.8 0 19.6 27.7 42.6 111.8 104.9 360.5
22 04:50 9.2 99 8.84 9.1 6 7 1023.8 0 20.3 28.1 43.7 114.7 108.8 374.1
22 04:40 8.8 99 8.62 8.7 0 0 1023.9 0 19.9 27.9 43.0 112.8 106.2 365.0
22 04:30 9 99 8.73 8.9 7 9 1023.9 0 20.1 28.0 43.4 113.8 107.5 369.6
22 04:20 9.4 99 8.96 9.3 7 7 1024.2 0 20.6 28.3 44.2 115.9 110.3 379.2
22 04:10 9.7 99 9.13 9.6 0 0 1024.5 0 20.9 28.5 44.7 117.4 112.3 386.4
22 04:00 9.1 96 8.52 8.5 0 0 1024.4 0 19.6 27.6 42.4 111.2 104.4 358.8
22 03:50 9.6 98 8.98 9.3 0 0 1024.5 0 20.6 28.3 44.1 115.8 110.3 379.4
22 03:40 10.2 99 9.42 10 0 0 1024.6 0 21.5 28.8 45.7 120.1 115.7 398.5
22 03:30 10.5 99 9.6 10.3 2 7 1024.4 0 21.9 29.0 46.3 121.7 117.8 405.9
22 03:20 10.5 99 9.6 10.3 0 0 1024.6 0 21.9 29.1 46.3 121.7 117.9 406.0
22 03:10 10.3 99 9.48 10.1 0 0 1024.8 0 21.6 28.9 45.9 120.6 116.5 401.0
22 03:00 9.8 98 9.09 9.5 0 0 1024.9 0 20.8 28.4 44.5 116.9 111.6 384.0
22 02:50 9.6 97 8.89 9.1 0 0 1025.1 0 20.4 28.1 43.8 114.9 109.1 375.0
22 02:40 9.8 97 9 9.3 7 7 1025.2 0 20.6 28.3 44.2 115.9 110.3 379.6
22 02:30 10.1 96 9.08 9.5 6 9 1025.2 0 20.8 28.3 44.3 116.3 111.0 382.1
22 02:20 10 94 8.83 9.1 0 0 1025.4 0 20.3 27.9 43.3 113.6 107.7 370.2
22 02:10 10.5 96 9.31 9.9 0 0 1025.6 0 21.3 28.6 45.1 118.4 113.8 391.7
22 02:00 11.1 98 9.87 10.8 7 9 1025.5 0 22.4 29.4 47.2 124.0 120.9 416.7
22 01:50 11 98 9.81 10.7 7 7 1025.6 0 22.3 29.3 47.0 123.5 120.2 414.2
22 01:40 11 98 9.81 10.7 7 7 1025.8 0 22.3 29.3 47.0 123.5 120.2 414.3
22 01:30 11 98 9.81 10.7 6 9 1025.8 0 22.3 29.3 47.0 123.5 120.2 414.3
22 01:20 10.8 99 9.79 10.6 6 6 1026 0 22.3 29.3 47.1 123.6 120.3 414.4
22 01:10 10.4 96 9.25 9.8 9 9 1026 0 21.1 28.5 44.9 117.9 113.1 389.3
22 01:00 10.4 96 9.25 9.8 7 9 1026 0 21.1 28.5 44.9 117.9 113.1 389.3
22 00:50 10.5 95 9.22 9.7 9 9 1026.2 0 21.1 28.5 44.8 117.5 112.6 387.4
22 00:40 11 96 9.61 10.4 9 9 1026.2 0 21.9 29.0 46.2 121.2 117.4 404.4
22 00:30 11.1 96 9.67 10.5 7 9 1026.2 0 22.0 29.0 46.4 121.8 118.1 406.8
22 00:20 11 94 9.41 10.1 7 9 1026.4 0 21.5 28.6 45.3 118.9 114.5 394.4
22 00:10 10.5 89 8.63 8.8 7 7 1026.5 0 19.8 27.4 42.2 110.7 104.2 358.4
22 00:00 12.1 92 9.87 10.8 7 7 1026.3 0 22.4 29.1 46.7 122.5 119.4 411.6
21 23:50 12.2 93 10.04 11.1 7 9 1026.5 0 22.7 29.3 47.3 124.4 121.7 419.6
21 23:40 11.4 87 8.93 9.3 9 9 1026.6 0 20.4 27.7 43.0 112.8 107.2 368.8
21 23:30 12.5 88 9.68 10.6 7 9 1026.5 0 22.0 28.6 45.6 119.7 116.1 400.1
21 23:20 12.7 86 9.57 10.4 7 9 1026.7 0 21.7 28.4 45.0 118.2 114.3 393.8
21 23:10 13 84 9.53 10.4 9 9 1026.7 0 21.6 28.2 44.7 117.3 113.3 390.3
21 23:00 13.5 83 9.71 10.7 11 13 1026.6 0 22.0 28.3 45.2 118.6 115.0 396.5
21 22:50 14.1 82 9.95 11.1 11 13 1026.8 0 22.4 28.6 45.8 120.4 117.5 405.2
21 22:40 14.3 81 9.95 11.1 11 13 1026.8 0 22.4 28.5 45.7 120.1 117.2 404.1
21 22:30 14.6 80 10.01 11.2 15 19 1026.8 0 22.5 28.5 45.8 120.3 117.6 405.5
21 22:20 14.9 79 10.07 11.3 15 19 1026.9 0 22.7 28.5 45.9 120.5 117.9 406.8
21 22:10 15.3 78 10.19 11.5 15 15 1026.8 0 22.9 28.6 46.1 121.2 119.0 410.5
21 22:00 15.4 78 10.25 11.6 17 19 1026.7 0 23.0 28.6 46.3 121.7 119.6 412.8
21 21:50 15.4 78 10.25 11.6 15 19 1026.8 0 23.0 28.7 46.3 121.7 119.6 412.9
21 21:40 15.6 76 10.11 11.4 17 19 1026.7 0 22.7 28.3 45.6 119.8 117.4 405.1
21 21:30 16.2 73 10.07 11.4 15 22 1026.6 0 22.6 28.1 45.1 118.5 115.9 400.0

Last Refresh: 22-Jan-2022 13:52:12

Bureau of Meteorology